Latest Weather Observations for Williamson

IDQ60801

Issued at 1:02 pm EST Monday 18 November 2019 (issued every 10 minutes, with the page automatically refreshed every 10 minutes)

About weather observations | Map of weather stations | Latest weather observations for QLD | Other Formats
Station Details ID: 033195 Name: WILLIAMSON Lat: -22.47 Lon: 150.18 Height: 27.6 m
Data from the previous 72 hours. | See also: Recent months at Williamson
Date/Time
EST
Temp
°C
App
Temp
°C
Dew
Point
°C
Rel
Hum
%
Delta-T
°C
Wind Press
QNH
hPa
Press
MSL
hPa
Rain since
9am
mm
Dir  Spd
km/h
Gust
km/h
Spd
kts
Gust
kts
18/01:00pm 30.0 30.7 19.7 54 6.8 NE 15 28 8 15 1012.9 1012.7 0.0
18/12:30pm 29.8 30.6 19.8 55 6.6 NNE 15 30 8 16 1013.2 1013.0 0.0
18/12:00pm 30.2 31.0 19.9 54 6.8 NE 15 24 8 13 1013.5 1013.3 0.0
18/11:30am 30.3 31.0 19.6 52 7.0 NE 15 22 8 12 1013.6 1013.4 0.0
18/11:00am 30.3 31.3 20.2 54 6.7 NE 15 28 8 15 1013.8 1013.6 0.0
18/10:30am 30.0 31.0 20.3 56 6.4 NE 15 28 8 15 1014.1 1013.9 0.0
18/10:00am 30.0 31.6 20.0 55 6.6 NNE 11 22 6 12 1014.3 1014.1 0.0
18/09:30am 29.6 30.9 20.2 57 6.2 NNE 13 24 7 13 1014.4 1014.2 0.0
18/09:00am 29.1 30.0 20.0 58 6.0 NNE 15 22 8 12 1014.4 1014.2 0.0
18/08:30am 28.1 29.0 19.3 58 5.7 NNE 13 20 7 11 1014.4 1014.2 0.0
18/08:00am 27.0 28.0 19.4 63 4.9 NNE 13 20 7 11 1014.6 1014.4 0.0
18/07:30am 26.7 27.9 19.8 66 4.5 NNE 13 20 7 11 1014.6 1014.4 0.0
18/07:00am 26.8 28.6 20.4 68 4.2 N 11 17 6 9 1014.3 1014.1 0.0
18/06:30am 26.1 28.3 21.1 74 3.3 NNE 11 15 6 8 1013.9 1013.7 0.0
18/06:00am 24.5 27.2 21.4 83 2.0 NNE 9 13 5 7 1013.8 1013.6 0.0
18/05:30am 22.5 25.6 21.1 92 0.9 NE 6 9 3 5 1013.6 1013.4 0.0
18/05:00am 22.3 25.5 20.6 90 1.1 ENE 4 7 2 4 1013.5 1013.3 0.0
18/04:30am 22.4 25.9 20.3 88 1.4 NE 2 7 1 4 1013.3 1013.1 0.0
18/04:00am 22.9 26.3 20.1 84 1.8 ESE 2 6 1 3 1013.2 1013.0 0.0
18/03:30am 23.7 26.9 20.4 82 2.1 ESE 4 9 2 5 1013.2 1013.0 0.0
18/03:00am 24.5 27.7 20.6 79 2.5 W 4 7 2 4 1013.1 1012.9 0.0
18/02:30am 24.9 28.3 21.0 79 2.6 SSE 4 11 2 6 1013.2 1013.0 0.0
18/02:00am 25.0 28.0 21.3 80 2.4 N 7 13 4 7 1013.0 1012.8 0.0
18/01:30am 24.9 26.7 21.2 80 2.4 N 13 24 7 13 1011.8 1011.6 0.0
18/01:00am 25.0 27.0 21.5 81 2.3 N 13 24 7 13 1012.2 1012.0 0.0
18/12:30am 24.9 26.8 21.4 81 2.3 N 13 20 7 11 1012.4 1012.2 0.0
18/12:00am 25.0 26.5 21.3 80 2.4 N 15 28 8 15 1012.7 1012.5 0.0
 
Date/Time
EST
Temp
°C
App
Temp
°C
Dew
Point
°C
Rel
Hum
%
Delta-T
°C
Wind Press
QNH
hPa
Press
MSL
hPa
Rain since
9am
mm
Dir  Spd
km/h
Gust
km/h
Spd
kts
Gust
kts
17/11:30pm 25.1 27.0 21.4 80 2.4 N 13 22 7 12 1013.5 1013.3 0.0
17/11:00pm 25.0 27.0 21.5 81 2.3 N 13 20 7 11 1013.4 1013.2 0.0
17/10:30pm 25.0 27.0 21.5 81 2.3 N 13 22 7 12 1013.5 1013.3 0.0
17/10:00pm 25.1 27.0 21.4 80 2.4 N 13 22 7 12 1013.5 1013.3 0.0
17/09:30pm 25.0 26.9 21.3 80 2.4 N 13 19 7 10 1013.4 1013.2 0.0
17/09:00pm 25.0 27.2 21.1 79 2.6 N 11 20 6 11 1013.2 1013.0 0.0
17/08:30pm 25.1 26.8 21.0 78 2.7 N 13 20 7 11 1012.9 1012.7 0.0
17/08:00pm 25.2 27.4 21.1 78 2.7 N 11 17 6 9 1012.9 1012.7 0.0
17/07:30pm 25.3 26.9 21.4 79 2.6 N 15 24 8 13 1012.5 1012.3 0.0
17/07:00pm 25.5 28.2 21.4 78 2.7 NNE 9 17 5 9 1012.3 1012.1 0.0
17/06:30pm 25.7 26.7 21.1 76 3.0 NNE 17 26 9 14 1011.9 1011.7 0.0
17/06:00pm 26.1 26.3 20.2 70 3.9 N 19 30 10 16 1011.7 1011.5 0.0
17/05:30pm 26.6 26.7 20.0 67 4.3 N 19 28 10 15 1011.6 1011.4 0.0
17/05:00pm 27.1 26.5 19.7 64 4.8 NNE 22 32 12 17 1011.3 1011.1 0.0
17/04:30pm 27.8 27.5 19.6 61 5.3 NNE 20 35 11 19 1011.1 1010.9 0.0
17/04:00pm 28.4 28.7 19.6 59 5.7 NNE 17 32 9 17 1011.2 1011.0 0.0
17/03:30pm 28.6 28.1 19.0 56 6.2 NNE 20 37 11 20 1011.2 1011.0 0.0
17/03:00pm 28.5 27.9 19.7 59 5.7 NNE 22 35 12 19 1011.5 1011.3 0.0
17/02:30pm 29.1 28.2 19.1 54 6.5 NNE 22 33 12 18 1011.6 1011.4 0.0
17/02:00pm 30.5 30.5 20.1 53 6.9 N 20 33 11 18 1011.9 1011.7 0.0
17/01:30pm 29.7 29.5 19.7 55 6.5 NNE 20 35 11 19 1012.3 1012.1 0.0
17/01:00pm 29.4 29.0 19.4 55 6.5 NNE 20 32 11 17 1013.0 1012.8 0.0
17/12:30pm 29.8 29.0 19.2 53 6.9 NNE 22 35 12 19 1013.5 1013.3 0.0
17/12:00pm 30.3 29.8 19.0 50 7.3 NNE 20 35 11 19 1013.7 1013.5 0.0
17/11:30am 29.8 29.0 19.2 53 6.9 NNE 22 32 12 17 1014.0 1013.8 0.0
17/11:00am 30.4 30.2 19.7 52 7.0 NNE 20 30 11 16 1014.4 1014.2 0.0
17/10:30am 30.5 30.8 19.5 51 7.2 NNE 17 28 9 15 1014.7 1014.5 0.0
17/10:00am 30.6 31.6 20.2 53 6.9 NE 15 24 8 13 1015.0 1014.8 0.0
17/09:30am 28.9 30.5 19.2 55 6.3 N 9 19 5 10 1015.4 1015.2 0.0
17/09:00am 28.0 28.3 18.7 57 6.0 NNW 15 22 8 12 1015.6 1015.4 0.0
17/08:30am 28.9 29.5 19.5 57 6.1 NNE 15 24 8 13 1015.5 1015.3 0.0
17/08:00am 28.1 29.0 19.3 58 5.7 NNW 13 20 7 11 1015.6 1015.4 0.0
17/07:30am 26.3 27.3 19.4 66 4.5 NW 13 20 7 11 1015.6 1015.4 0.0
17/07:00am 27.3 28.9 19.9 64 4.8 NNE 11 20 6 11 1015.1 1014.9 0.0
17/06:30am 25.9 27.8 20.5 72 3.5 N 11 19 6 10 1014.7 1014.5 0.0
17/06:00am 24.7 27.1 20.8 79 2.6 N 9 13 5 7 1014.5 1014.3 0.0
17/05:30am 24.3 26.7 20.8 81 2.3 N 9 13 5 7 1014.1 1013.9 0.0
17/05:00am 23.6 26.5 20.7 84 1.9 N 6 7 3 4 1013.9 1013.7 0.0
17/04:30am 23.6 26.4 20.5 83 2.0 NNE 6 9 3 5 1013.6 1013.4 0.0
17/04:00am 24.0 26.3 20.7 82 2.2 N 9 17 5 9 1013.3 1013.1 0.0
17/03:30am 24.0 26.3 20.7 82 2.2 N 9 15 5 8 1013.4 1013.2 0.0
17/03:00am 24.1 26.2 21.0 83 2.0 N 11 17 6 9 1013.3 1013.1 0.0
17/02:30am 24.1 26.5 20.8 82 2.2 N 9 17 5 9 1013.7 1013.5 0.0
17/02:00am 24.2 26.1 20.5 80 2.4 N 11 17 6 9 1014.0 1013.8 0.0
17/01:30am 24.0 26.1 20.1 79 2.5 NNE 9 13 5 7 1014.5 1014.3 0.0
17/01:00am 24.3 27.4 20.2 78 2.7 N 4 9 2 5 1015.3 1015.1 0.0
17/12:30am 24.6 27.7 20.3 77 2.8 N 4 9 2 5 1016.0 1015.8 0.0
17/12:00am 24.8 27.4 20.5 77 2.8 WNW 7 17 4 9 1015.7 1015.5 0.0
 
Date/Time
EST
Temp
°C
App
Temp
°C
Dew
Point
°C
Rel
Hum
%
Delta-T
°C
Wind Press
QNH
hPa
Press
MSL
hPa
Rain since
9am
mm
Dir  Spd
km/h
Gust
km/h
Spd
kts
Gust
kts
16/11:30pm 24.6 25.6 20.3 77 2.8 N 15 22 8 12 1015.2 1015.0 0.0
16/11:00pm 24.6 26.6 19.9 75 3.0 N 9 17 5 9 1015.6 1015.4 0.0
16/10:30pm 24.4 26.0 19.9 76 2.9 N 11 19 6 10 1015.5 1015.3 0.0
16/10:00pm 24.5 26.0 19.8 75 3.0 N 11 19 6 10 1015.2 1015.0 0.0
16/09:30pm 24.6 25.4 19.9 75 3.0 N 15 26 8 14 1015.2 1015.0 0.0
16/09:00pm 24.6 25.7 19.7 74 3.2 NNE 13 24 7 13 1014.9 1014.7 0.0
16/08:30pm 24.6 25.8 19.9 75 3.0 NNE 13 24 7 13 1014.9 1014.7 0.0
16/08:00pm 24.6 25.8 19.9 75 3.0 NNE 13 20 7 11 1014.6 1014.4 0.0
16/07:30pm 24.7 25.9 19.8 74 3.2 NNE 13 22 7 12 1014.4 1014.2 0.0
16/07:00pm 24.8 25.9 19.6 73 3.3 NNE 13 20 7 11 1014.2 1014.0 0.0
16/06:30pm 24.9 26.0 19.7 73 3.4 NNE 13 24 7 13 1014.0 1013.8 0.0
16/06:00pm 25.4 26.6 19.8 71 3.6 NNE 13 24 7 13 1013.5 1013.3 0.0
16/05:30pm 25.9 25.9 19.8 69 4.0 NNE 19 32 10 17 1013.3 1013.1 0.0
16/05:00pm 26.7 27.0 19.6 65 4.6 NNE 17 26 9 14 1013.1 1012.9 0.0
16/04:30pm 27.3 26.9 19.4 62 5.1 NNE 20 30 11 16 1012.9 1012.7 0.0
16/04:00pm 27.4 26.8 18.9 59 5.5 NE 20 32 11 17 1013.1 1012.9 0.0
16/03:30pm 28.8 28.8 18.9 55 6.4 NNE 17 26 9 14 1013.2 1013.0 0.0
16/03:00pm 28.2 27.4 17.1 51 7.0 N 17 33 9 18 1013.3 1013.1 0.0
16/02:30pm 29.4 29.6 18.5 52 7.0 N 15 30 8 16 1013.5 1013.3 0.0
16/02:00pm 29.0 28.6 18.1 51 7.0 NNE 17 28 9 15 1013.7 1013.5 0.0
16/01:30pm 29.2 28.7 17.7 50 7.3 NNE 17 32 9 17 1014.0 1013.8 0.0
16/01:00pm 29.9 29.5 18.0 48 7.6 NNE 17 28 9 15 1014.4 1014.2 0.0
16/12:30pm 29.8 28.8 17.6 48 7.8 NE 19 30 10 16 1014.7 1014.5 0.0
16/12:00pm 28.9 28.2 17.4 49 7.3 NE 17 24 9 13 1015.0 1014.8 0.0
16/11:30am 29.0 28.5 17.8 50 7.1 NE 17 24 9 13 1015.3 1015.1 0.0
16/11:00am 29.5 29.6 18.3 51 7.2 NE 15 28 8 15 1015.6 1015.4 0.0
16/10:30am 29.1 29.4 17.9 50 7.1 NE 13 24 7 13 1015.8 1015.6 0.0
16/10:00am 28.6 28.7 18.4 54 6.5 NE 15 24 8 13 1016.0 1015.8 0.0
16/09:30am 28.1 28.4 17.9 54 6.5 NE 13 20 7 11 1016.1 1015.9 0.0
16/09:00am 27.1 29.1 18.7 60 5.4 NNE 6 15 3 8 1016.2 1016.0 0.0
16/08:30am 27.1 27.4 17.8 56 5.9 NNE 13 20 7 11 1015.9 1015.7 0.0
16/08:00am 26.8 27.9 18.1 59 5.5 NNW 9 17 5 9 1016.0 1015.8 0.0
16/07:30am 26.3 27.2 18.4 61 5.0 NNW 11 19 6 10 1015.8 1015.6 0.0
16/07:00am 25.2 26.6 18.6 67 4.2 N 9 13 5 7 1016.2 1016.0 0.0
16/06:30am 23.7 26.9 18.8 74 3.1 CALM 0 6 0 3 1016.2 1016.0 0.0
16/06:00am 23.4 24.9 18.9 76 2.9 SW 9 17 5 9 1016.0 1015.8 0.0
16/05:30am 23.1 24.9 18.8 77 2.7 N 7 9 4 5 1014.2 1014.0 0.0
16/05:00am 23.1 24.8 18.6 76 2.8 NNW 7 13 4 7 1014.0 1013.8 0.0
16/04:30am 23.7 24.8 18.8 74 3.1 N 11 19 6 10 1014.0 1013.8 0.0
16/04:00am 23.9 25.5 19.2 75 3.0 NNE 9 15 5 8 1014.1 1013.9 0.0
16/03:30am 24.0 25.8 19.5 76 2.9 NNE 9 15 5 8 1014.1 1013.9 0.0
16/03:00am 23.9 25.5 19.2 75 3.0 NNE 9 15 5 8 1014.0 1013.8 0.0
16/02:30am 23.7 25.2 19.0 75 3.0 NNE 9 13 5 7 1014.0 1013.8 0.0
16/02:00am 23.6 25.1 18.9 75 3.0 NNE 9 13 5 7 1014.3 1014.1 0.0
16/01:30am 23.8 25.7 18.9 74 3.1 NNE 7 13 4 7 1014.6 1014.4 0.0
16/01:00am 24.3 26.0 19.4 74 3.1 NE 9 17 5 9 1015.0 1014.8 0.0
16/12:30am 24.1 26.1 19.2 74 3.1 NE 7 11 4 6 1015.2 1015.0 0.0
16/12:00am 24.1 26.1 19.2 74 3.1 NNE 7 13 4 7 1015.9 1015.7 0.0
 
Date/Time
EST
Temp
°C
App
Temp
°C
Dew
Point
°C
Rel
Hum
%
Delta-T
°C
Wind Press
QNH
hPa
Press
MSL
hPa
Rain since
9am
mm
Dir  Spd
km/h
Gust
km/h
Spd
kts
Gust
kts
15/11:30pm 24.6 26.7 19.4 73 3.3 NNE 7 17 4 9 1016.3 1016.1 0.0
15/11:00pm 24.6 26.5 19.7 74 3.2 NNE 9 13 5 7 1016.0 1015.8 0.0
15/10:30pm 24.5 26.3 19.6 74 3.2 NE 9 17 5 9 1016.0 1015.8 0.0
15/10:00pm 24.4 25.8 19.5 74 3.1 NNE 11 17 6 9 1015.6 1015.4 0.0
15/09:30pm 24.3 26.7 19.6 75 3.0 NNE 6 11 3 6 1015.8 1015.6 0.0
15/09:00pm 24.7 26.8 19.3 72 3.5 ENE 7 13 4 7 1015.8 1015.6 0.0
15/08:30pm 24.6 25.9 19.4 73 3.3 NNE 11 17 6 9 1015.2 1015.0 0.0
15/08:00pm 24.8 25.8 19.4 72 3.5 NNE 13 19 7 10 1015.2 1015.0 0.0
15/07:30pm 24.9 25.8 19.3 71 3.6 NE 13 20 7 11 1014.6 1014.4 0.0
15/07:00pm 25.0 26.0 19.4 71 3.6 NNE 13 24 7 13 1014.1 1013.9 0.0
15/06:30pm 25.1 26.0 19.2 70 3.8 NNE 13 20 7 11 1013.7 1013.5 0.0
15/06:00pm 25.5 26.4 19.2 68 4.0 NNE 13 20 7 11 1013.2 1013.0 0.0
15/05:30pm 26.2 26.6 18.9 64 4.7 N 15 22 8 12 1012.8 1012.6 0.0
15/05:00pm 26.4 26.3 18.8 63 4.9 NNE 17 28 9 15 1012.8 1012.6 0.0
15/04:30pm 27.2 26.9 18.2 58 5.7 NNE 17 22 9 12 1012.5 1012.3 0.0
15/04:00pm 27.8 27.8 18.2 56 6.1 NE 15 26 8 14 1012.5 1012.3 0.0
15/03:30pm 28.1 27.5 17.6 53 6.6 NNE 17 28 9 15 1012.5 1012.3 0.0
15/03:00pm 28.7 28.3 17.2 49 7.2 NNE 15 24 8 13 1012.6 1012.4 0.0
15/02:30pm 29.5 28.9 16.7 46 8.0 NE 15 24 8 13 1012.6 1012.4 0.0
15/02:00pm 28.5 27.4 16.4 48 7.5 NE 17 26 9 14 1012.9 1012.7 0.0
15/01:30pm 30.1 29.3 16.1 42 8.7 NE 15 28 8 15 1013.2 1013.0 0.0

Other formats

Comma delimited format used in spreadsheet applications
http://www.bom.gov.au/fwo/IDQ60801/IDQ60801.95370.axf

JavaScript Object Notation format (JSON) in row-major order
http://www.bom.gov.au/fwo/IDQ60801/IDQ60801.95370.json

Data quality

Most of these data are generated automatically and are frequently updated. Quality checks on data are not normally performed. It is possible for incorrect values to appear. Refer to information at About Latest Weather Observations and please check the disclaimer before using these data.